createdAt,value
2018-03-17T00:00:26.084Z,5.65
2018-03-17T00:01:05.064Z,5.56
2018-03-17T00:02:26.052Z,5.48
2018-03-17T00:03:05.034Z,5.30
2018-03-17T00:04:05.023Z,5.48
2018-03-17T00:05:26.017Z,5.30
2018-03-17T00:06:04.993Z,5.22
2018-03-17T00:07:25.991Z,5.07
2018-03-17T00:08:04.964Z,5.04
2018-03-17T00:09:04.950Z,5.00
2018-03-17T00:10:25.938Z,4.94
2018-03-17T00:11:04.925Z,4.94
2018-03-17T00:12:25.921Z,4.85
2018-03-17T00:13:04.907Z,4.84
2018-03-17T00:14:04.885Z,4.77
2018-03-17T00:15:25.877Z,4.75
2018-03-17T00:16:04.858Z,4.86
2018-03-17T00:17:25.851Z,4.89
2018-03-17T00:18:04.832Z,4.91
2018-03-17T00:19:04.818Z,4.99
2018-03-17T00:20:25.802Z,5.03
2018-03-17T00:21:04.786Z,5.09
2018-03-17T00:22:25.777Z,5.07
2018-03-17T00:23:04.762Z,5.13
2018-03-17T00:24:04.744Z,5.15
2018-03-17T00:25:25.736Z,5.20
2018-03-17T00:26:04.722Z,5.28
2018-03-17T00:27:25.709Z,5.25
2018-03-17T00:28:04.693Z,5.36
2018-03-17T00:29:04.677Z,5.35
2018-03-17T00:30:25.669Z,5.24
2018-03-17T00:31:04.653Z,5.35
2018-03-17T00:32:25.645Z,5.40
2018-03-17T00:33:04.625Z,5.42
2018-03-17T00:34:04.615Z,5.43
2018-03-17T00:35:25.605Z,5.45
2018-03-17T00:36:04.581Z,5.48
2018-03-17T00:37:25.573Z,5.42
2018-03-17T00:38:04.554Z,5.46
2018-03-17T00:39:04.540Z,5.46
2018-03-17T00:40:25.537Z,5.48
2018-03-17T00:41:04.521Z,5.57
2018-03-17T00:42:25.508Z,5.54
2018-03-17T00:43:04.487Z,5.64
2018-03-17T00:44:04.478Z,5.48
2018-03-17T00:45:25.458Z,5.53
2018-03-17T00:46:04.444Z,5.46
2018-03-17T00:47:25.442Z,5.48
2018-03-17T00:48:04.420Z,5.43
2018-03-17T00:49:04.404Z,5.46
2018-03-17T00:50:25.392Z,5.40
2018-03-17T00:51:04.378Z,5.40
2018-03-17T00:52:25.372Z,5.45
2018-03-17T00:53:04.354Z,5.43
2018-03-17T00:54:04.339Z,5.45
2018-03-17T00:55:25.329Z,5.39
2018-03-17T00:56:04.311Z,5.35
2018-03-17T00:57:25.330Z,5.40
2018-03-17T00:58:04.291Z,5.31
2018-03-17T00:59:04.273Z,5.30
2018-03-17T01:00:25.262Z,5.24
2018-03-17T01:01:04.242Z,5.28
2018-03-17T01:02:25.230Z,5.18
2018-03-17T01:03:04.228Z,5.04
2018-03-17T01:04:04.202Z,5.07
2018-03-17T01:05:25.193Z,5.04
2018-03-17T01:06:04.174Z,4.99
2018-03-17T01:07:25.162Z,4.94
2018-03-17T01:08:04.145Z,4.92
2018-03-17T01:09:04.132Z,4.94
2018-03-17T01:10:25.125Z,4.89
2018-03-17T01:11:04.105Z,4.91
2018-03-17T01:12:25.092Z,4.92
2018-03-17T01:13:04.077Z,4.91
2018-03-17T01:14:04.060Z,4.97
2018-03-17T01:15:25.059Z,4.97
2018-03-17T01:16:04.039Z,5.03
2018-03-17T01:17:25.029Z,5.10
2018-03-17T01:18:04.014Z,5.09
2018-03-17T01:19:03.997Z,5.12
2018-03-17T01:20:24.984Z,5.07
2018-03-17T01:21:03.967Z,5.06
2018-03-17T01:22:24.959Z,5.07
2018-03-17T01:23:03.945Z,5.06
2018-03-17T01:24:03.927Z,5.13
2018-03-17T01:25:24.920Z,5.18
2018-03-17T01:26:03.902Z,5.18
2018-03-17T01:27:24.886Z,5.27
2018-03-17T01:28:03.872Z,5.27
2018-03-17T01:29:03.858Z,5.27
2018-03-17T01:30:24.842Z,5.24
2018-03-17T01:31:03.826Z,5.27
2018-03-17T01:32:24.821Z,5.31
2018-03-17T01:33:03.801Z,5.24
2018-03-17T01:34:03.789Z,5.24
2018-03-17T01:35:24.781Z,5.24
2018-03-17T01:36:03.765Z,5.27
2018-03-17T01:37:24.759Z,5.27
2018-03-17T01:38:03.731Z,5.33
2018-03-17T01:39:03.721Z,5.27
2018-03-17T01:40:24.708Z,5.30
2018-03-17T01:41:03.692Z,5.36
2018-03-17T01:42:24.682Z,5.31
2018-03-17T01:43:03.668Z,5.28
2018-03-17T01:44:03.653Z,5.46
2018-03-17T01:45:24.639Z,5.43
2018-03-17T01:46:03.618Z,5.36
2018-03-17T01:47:24.625Z,5.36
2018-03-17T01:48:03.593Z,5.31
2018-03-17T01:49:03.578Z,5.35
2018-03-17T01:50:24.570Z,5.36
2018-03-17T01:51:03.558Z,5.30
2018-03-17T01:52:24.546Z,5.33
2018-03-17T01:53:03.520Z,5.31
2018-03-17T01:54:03.512Z,5.31
2018-03-17T01:55:24.501Z,5.40
2018-03-17T01:56:03.485Z,5.33
2018-03-17T01:57:24.480Z,5.39
2018-03-17T01:58:03.459Z,5.25
2018-03-17T01:59:03.445Z,5.24
2018-03-17T02:00:24.438Z,5.15
2018-03-17T02:01:03.422Z,5.09
2018-03-17T02:02:24.409Z,5.06
2018-03-17T02:03:03.391Z,4.94
2018-03-17T02:04:03.378Z,4.92
2018-03-17T02:05:24.362Z,4.86
2018-03-17T02:06:03.351Z,4.88
2018-03-17T02:07:24.337Z,4.91
2018-03-17T02:08:03.328Z,4.96
2018-03-17T02:09:03.304Z,4.97
2018-03-17T02:10:24.294Z,5.00
2018-03-17T02:11:03.282Z,5.02
2018-03-17T02:12:24.271Z,5.10
2018-03-17T02:13:03.249Z,5.09
2018-03-17T02:14:03.237Z,5.09
2018-03-17T02:15:24.231Z,5.13
2018-03-17T02:16:03.211Z,5.21
2018-03-17T02:17:24.192Z,5.18
2018-03-17T02:18:03.184Z,5.22
2018-03-17T02:19:03.166Z,5.12
2018-03-17T02:20:24.157Z,5.20
2018-03-17T02:21:03.142Z,5.22
2018-03-17T02:22:24.135Z,5.20
2018-03-17T02:23:03.117Z,5.18
2018-03-17T02:24:03.101Z,5.22
2018-03-17T02:25:24.089Z,5.36
2018-03-17T02:26:03.071Z,5.31
2018-03-17T02:27:24.063Z,5.24
2018-03-17T02:28:03.038Z,5.28
2018-03-17T02:29:03.027Z,5.28
2018-03-17T02:30:24.018Z,5.24
2018-03-17T02:31:03.000Z,5.25
2018-03-17T02:32:23.997Z,5.30
2018-03-17T02:33:02.970Z,5.13
2018-03-17T02:34:02.962Z,5.15
2018-03-17T02:35:23.955Z,5.21
2018-03-17T02:36:02.941Z,5.13
2018-03-17T02:37:23.923Z,5.15
2018-03-17T02:38:02.907Z,5.20
2018-03-17T02:39:02.892Z,5.20
2018-03-17T02:40:23.886Z,5.12
2018-03-17T02:41:02.863Z,5.10
2018-03-17T02:42:23.854Z,5.28
2018-03-17T02:43:02.834Z,5.17
2018-03-17T02:44:02.835Z,5.13
2018-03-17T02:45:23.824Z,5.15
2018-03-17T02:46:02.802Z,5.12
2018-03-17T02:47:23.786Z,5.02
2018-03-17T02:48:02.767Z,4.91
2018-03-17T02:49:02.756Z,4.85
2018-03-17T02:50:23.741Z,4.80
2018-03-17T02:51:02.727Z,4.70
2018-03-17T02:52:23.714Z,4.65
2018-03-17T02:53:02.701Z,4.66
2018-03-17T02:54:02.689Z,4.59
2018-03-17T02:55:23.673Z,4.58
2018-03-17T02:56:02.662Z,4.51
2018-03-17T02:57:23.645Z,4.44
2018-03-17T02:58:02.622Z,4.47
2018-03-17T02:59:02.615Z,4.45
2018-03-17T03:00:23.616Z,4.48
2018-03-17T03:01:02.590Z,4.42
2018-03-17T03:02:23.577Z,4.47
2018-03-17T03:03:02.556Z,4.48
2018-03-17T03:04:02.552Z,4.48
2018-03-17T03:05:23.533Z,4.45
2018-03-17T03:06:02.526Z,4.58
2018-03-17T03:07:23.517Z,4.52
2018-03-17T03:08:02.489Z,4.58
2018-03-17T03:09:02.472Z,4.72
2018-03-17T03:10:23.465Z,4.72
2018-03-17T03:11:02.441Z,4.70
2018-03-17T03:12:23.431Z,4.73
2018-03-17T03:13:02.419Z,4.80
2018-03-17T03:14:02.403Z,4.86
2018-03-17T03:15:23.395Z,4.86
2018-03-17T03:16:02.381Z,4.88
2018-03-17T03:17:23.366Z,4.94
2018-03-17T03:18:02.362Z,4.92
2018-03-17T03:19:02.336Z,4.96
2018-03-17T03:20:23.323Z,4.97
2018-03-17T03:21:02.304Z,4.96
2018-03-17T03:22:23.302Z,4.99
2018-03-17T03:23:02.277Z,5.02
2018-03-17T03:24:02.266Z,5.04
2018-03-17T03:25:23.264Z,5.04
2018-03-17T03:26:02.252Z,5.03
2018-03-17T03:27:23.229Z,5.02
2018-03-17T03:28:02.221Z,5.04
2018-03-17T03:29:02.196Z,4.97
2018-03-17T03:30:23.185Z,5.02
2018-03-17T03:31:02.171Z,4.97
2018-03-17T03:32:23.151Z,5.02
2018-03-17T03:33:02.135Z,4.97
2018-03-17T03:34:02.125Z,4.97
2018-03-17T03:35:23.117Z,4.92
2018-03-17T03:36:02.104Z,4.94
2018-03-17T03:37:23.088Z,4.92
2018-03-17T03:38:02.072Z,4.97
2018-03-17T03:39:02.060Z,4.94
2018-03-17T03:40:23.041Z,4.88
2018-03-17T03:41:02.029Z,4.84
2018-03-17T03:42:23.023Z,4.84
2018-03-17T03:43:01.993Z,4.75
2018-03-17T03:44:01.984Z,4.75
2018-03-17T03:45:22.972Z,4.88
2018-03-17T03:46:01.960Z,4.78
2018-03-17T03:47:22.948Z,4.75
2018-03-17T03:48:01.931Z,4.78
2018-03-17T03:49:01.920Z,4.85
2018-03-17T03:50:22.910Z,4.91
2018-03-17T03:51:01.890Z,4.88
2018-03-17T03:52:22.877Z,4.80
2018-03-17T03:53:01.859Z,4.88
2018-03-17T03:54:01.881Z,4.84
2018-03-17T03:55:22.839Z,4.85
2018-03-17T03:56:01.858Z,4.85
2018-03-17T03:57:22.809Z,4.84
2018-03-17T03:58:01.800Z,4.92
2018-03-17T03:59:01.776Z,4.85
2018-03-17T04:00:22.772Z,4.88
2018-03-17T04:01:01.749Z,4.84
2018-03-17T04:02:22.740Z,4.91
2018-03-17T04:03:01.726Z,4.96
2018-03-17T04:04:01.703Z,4.96
2018-03-17T04:05:22.701Z,4.97
2018-03-17T04:06:01.680Z,4.96
2018-03-17T04:07:22.664Z,4.89
2018-03-17T04:08:01.649Z,4.97
2018-03-17T04:09:01.635Z,4.99
2018-03-17T04:10:22.627Z,4.97
2018-03-17T04:11:01.608Z,4.94
2018-03-17T04:12:22.600Z,4.97
2018-03-17T04:13:01.579Z,4.97
2018-03-17T04:14:01.564Z,4.89
2018-03-17T04:15:22.560Z,4.91
2018-03-17T04:16:01.541Z,4.75
2018-03-17T04:17:22.530Z,4.73
2018-03-17T04:18:01.513Z,4.66
2018-03-17T04:19:01.500Z,4.58
2018-03-17T04:20:22.482Z,4.47
2018-03-17T04:21:01.465Z,4.47
2018-03-17T04:22:22.459Z,4.48
2018-03-17T04:23:01.438Z,4.40
2018-03-17T04:24:01.433Z,4.42
2018-03-17T04:25:22.413Z,4.41
2018-03-17T04:26:01.397Z,4.45
2018-03-17T04:27:22.386Z,4.42
2018-03-17T04:28:01.385Z,4.54
2018-03-17T04:29:01.353Z,4.47
2018-03-17T04:30:22.352Z,4.48
2018-03-17T04:31:01.332Z,4.59
2018-03-17T04:32:22.318Z,4.59
2018-03-17T04:33:01.302Z,4.52
2018-03-17T04:34:01.282Z,4.66
2018-03-17T04:35:22.286Z,4.66
2018-03-17T04:36:01.259Z,4.75
2018-03-17T04:37:22.246Z,4.75
2018-03-17T04:38:01.229Z,4.65
2018-03-17T04:39:01.216Z,4.75
2018-03-17T04:40:22.205Z,4.70
2018-03-17T04:41:01.187Z,4.72
2018-03-17T04:42:22.175Z,4.84
2018-03-17T04:43:01.161Z,4.80
2018-03-17T04:44:01.148Z,4.82
2018-03-17T04:45:22.142Z,4.77
2018-03-17T04:46:01.117Z,4.72
2018-03-17T04:47:22.129Z,4.69
2018-03-17T04:48:01.092Z,4.70
2018-03-17T04:49:01.078Z,4.62
2018-03-17T04:50:22.072Z,4.65
2018-03-17T04:51:01.050Z,4.67
2018-03-17T04:52:22.043Z,4.59
2018-03-17T04:53:01.016Z,4.70
2018-03-17T04:54:01.003Z,4.69
2018-03-17T04:55:22.001Z,4.65
2018-03-17T04:56:00.975Z,4.65
2018-03-17T04:57:21.969Z,4.72
2018-03-17T04:58:00.948Z,4.52
2018-03-17T04:59:00.935Z,4.55
2018-03-17T05:00:21.920Z,4.52
2018-03-17T05:01:00.916Z,4.55
2018-03-17T05:02:21.894Z,4.63
2018-03-17T05:03:00.880Z,4.55
2018-03-17T05:04:00.863Z,4.63
2018-03-17T05:05:21.855Z,4.59
2018-03-17T05:06:00.852Z,4.50
2018-03-17T05:07:21.827Z,4.44
2018-03-17T05:08:00.807Z,4.59
2018-03-17T05:09:00.794Z,4.59
2018-03-17T05:10:21.782Z,4.44
2018-03-17T05:11:00.768Z,4.55
2018-03-17T05:12:21.751Z,4.45
2018-03-17T05:13:00.739Z,4.55
2018-03-17T05:14:00.727Z,4.55
2018-03-17T05:15:21.711Z,4.45
2018-03-17T05:16:00.702Z,4.52
2018-03-17T05:17:21.690Z,4.52
2018-03-17T05:18:00.668Z,4.59
2018-03-17T05:19:00.654Z,4.54
2018-03-17T05:20:21.649Z,4.50
2018-03-17T05:21:00.628Z,4.51
2018-03-17T05:22:21.616Z,4.54
2018-03-17T05:23:00.599Z,4.45
2018-03-17T05:24:00.580Z,4.41
2018-03-17T05:25:21.571Z,4.54
2018-03-17T05:26:00.559Z,4.42
2018-03-17T05:27:21.547Z,4.48
2018-03-17T05:28:00.528Z,4.50
2018-03-17T05:29:00.512Z,4.47
2018-03-17T05:30:21.500Z,4.51
2018-03-17T05:31:00.488Z,4.40
2018-03-17T05:32:21.471Z,4.45
2018-03-17T05:33:00.455Z,4.47
2018-03-17T05:34:00.448Z,4.42
2018-03-17T05:35:21.436Z,4.48
2018-03-17T05:36:00.423Z,4.47
2018-03-17T05:37:21.402Z,4.41
2018-03-17T05:38:00.384Z,4.44
2018-03-17T05:39:00.372Z,4.37
2018-03-17T05:40:21.365Z,4.41
2018-03-17T05:41:00.351Z,4.41
2018-03-17T05:42:21.333Z,4.45
2018-03-17T05:43:00.363Z,4.41
2018-03-17T05:44:00.302Z,4.47
2018-03-17T05:45:21.287Z,4.50
2018-03-17T05:46:00.278Z,4.59
2018-03-17T05:47:21.260Z,4.59
2018-03-17T05:48:00.241Z,4.59
2018-03-17T05:49:00.235Z,4.55
2018-03-17T05:50:21.219Z,4.52
2018-03-17T05:51:00.199Z,4.51
2018-03-17T05:52:21.187Z,4.65
2018-03-17T05:53:00.171Z,4.66
2018-03-17T05:54:00.163Z,4.77
2018-03-17T05:55:21.152Z,4.73
2018-03-17T05:56:00.132Z,4.70
2018-03-17T05:57:21.119Z,4.78
2018-03-17T05:58:00.104Z,4.78
2018-03-17T05:59:00.090Z,4.67
2018-03-17T06:00:21.077Z,4.75
2018-03-17T06:01:00.059Z,4.78
2018-03-17T06:02:21.050Z,4.75
2018-03-17T06:03:00.032Z,4.86
2018-03-17T06:04:00.019Z,4.78
2018-03-17T06:05:21.006Z,4.88
2018-03-17T06:05:59.989Z,4.85
2018-03-17T06:07:20.980Z,4.92
2018-03-17T06:07:59.960Z,4.94
2018-03-17T06:08:59.948Z,4.85
2018-03-17T06:10:20.942Z,4.88
2018-03-17T06:10:59.921Z,4.89
2018-03-17T06:12:20.908Z,4.89
2018-03-17T06:12:59.884Z,4.92
2018-03-17T06:13:59.884Z,4.84
2018-03-17T06:15:20.867Z,4.92
2018-03-17T06:15:59.852Z,4.97
2018-03-17T06:17:20.843Z,5.09
2018-03-17T06:17:59.819Z,5.06
2018-03-17T06:18:59.817Z,5.09
2018-03-17T06:20:20.798Z,5.07
2018-03-17T06:20:59.782Z,5.17
2018-03-17T06:22:20.768Z,5.09
2018-03-17T06:22:59.750Z,5.22
2018-03-17T06:23:59.735Z,5.24
2018-03-17T06:25:20.728Z,5.25
2018-03-17T06:25:59.723Z,5.27
2018-03-17T06:27:20.705Z,5.22
2018-03-17T06:27:59.679Z,5.36
2018-03-17T06:28:59.659Z,5.45
2018-03-17T06:30:20.654Z,5.42
2018-03-17T06:30:59.642Z,5.38
2018-03-17T06:32:20.629Z,5.42
2018-03-17T06:32:59.624Z,5.43
2018-03-17T06:33:59.597Z,5.45
2018-03-17T06:35:20.587Z,5.46
2018-03-17T06:35:59.569Z,5.53
2018-03-17T06:37:20.565Z,5.53
2018-03-17T06:37:59.547Z,5.54
2018-03-17T06:38:59.535Z,5.53
2018-03-17T06:40:20.511Z,5.40
2018-03-17T06:40:59.504Z,5.38
2018-03-17T06:42:20.489Z,5.31
2018-03-17T06:42:59.476Z,5.42
2018-03-17T06:43:59.463Z,5.36
2018-03-17T06:45:20.447Z,5.39
2018-03-17T06:45:59.432Z,5.38
2018-03-17T06:47:20.429Z,5.35
2018-03-17T06:47:59.406Z,5.43
2018-03-17T06:48:59.392Z,5.36
2018-03-17T06:50:20.380Z,5.38
2018-03-17T06:50:59.363Z,5.45
2018-03-17T06:52:20.357Z,5.46
2018-03-17T06:52:59.337Z,5.48
2018-03-17T06:53:59.323Z,5.46
2018-03-17T06:55:20.305Z,5.60
2018-03-17T06:55:59.295Z,5.49
2018-03-17T06:57:20.282Z,5.63
2018-03-17T06:57:59.265Z,5.56
2018-03-17T06:58:59.256Z,5.67
2018-03-17T07:00:20.250Z,5.67
2018-03-17T07:00:59.230Z,5.78
2018-03-17T07:02:20.216Z,5.75
2018-03-17T07:02:59.199Z,5.81
2018-03-17T07:03:59.183Z,5.91
2018-03-17T07:05:20.173Z,5.91
2018-03-17T07:05:59.154Z,6.00
2018-03-17T07:07:20.150Z,6.01
2018-03-17T07:07:59.132Z,5.97
2018-03-17T07:08:59.120Z,6.12
2018-03-17T07:10:20.109Z,6.12
2018-03-17T07:10:59.093Z,6.14
2018-03-17T07:12:20.143Z,6.18
2018-03-17T07:12:59.064Z,6.31
2018-03-17T07:13:59.058Z,6.34
2018-03-17T07:15:20.047Z,6.38
2018-03-17T07:15:59.019Z,6.49
2018-03-17T07:17:20.011Z,6.52
2018-03-17T07:17:58.991Z,6.54
2018-03-17T07:18:58.984Z,6.62
2018-03-17T07:20:19.971Z,6.67
2018-03-17T07:20:58.955Z,6.70
2018-03-17T07:22:19.943Z,6.70
2018-03-17T07:22:58.932Z,6.79
2018-03-17T07:23:58.914Z,6.80
2018-03-17T07:25:20.009Z,6.89
2018-03-17T07:25:58.889Z,6.87
2018-03-17T07:27:19.886Z,6.94
2018-03-17T07:27:58.860Z,7.03
2018-03-17T07:28:58.846Z,6.98
2018-03-17T07:30:19.836Z,6.97
2018-03-17T07:30:58.817Z,6.98
2018-03-17T07:32:19.814Z,6.95
2018-03-17T07:32:58.798Z,6.99
2018-03-17T07:33:58.781Z,6.95
2018-03-17T07:35:19.778Z,7.09
2018-03-17T07:35:58.760Z,7.17
2018-03-17T07:37:19.746Z,7.17
2018-03-17T07:37:58.734Z,7.21
2018-03-17T07:38:58.713Z,7.17
2018-03-17T07:40:19.709Z,7.28
2018-03-17T07:40:58.685Z,7.21
2018-03-17T07:42:19.681Z,7.40
2018-03-17T07:42:58.663Z,7.37
2018-03-17T07:43:58.652Z,7.50
2018-03-17T07:45:19.700Z,7.48
2018-03-17T07:45:58.619Z,7.53
2018-03-17T07:47:19.620Z,7.53
2018-03-17T07:47:58.606Z,7.53
2018-03-17T07:48:58.588Z,7.69
2018-03-17T07:50:19.578Z,7.64
2018-03-17T07:50:58.561Z,7.68
2018-03-17T07:52:19.555Z,7.63
2018-03-17T07:52:58.534Z,7.67
2018-03-17T07:53:58.524Z,7.72
2018-03-17T07:55:19.519Z,7.77
2018-03-17T07:55:58.498Z,7.64
2018-03-17T07:57:19.507Z,7.64
2018-03-17T07:57:58.472Z,7.50
2018-03-17T07:58:58.460Z,7.46
2018-03-17T08:00:19.452Z,7.48
2018-03-17T08:00:58.432Z,7.39
2018-03-17T08:02:19.423Z,7.34
2018-03-17T08:02:58.411Z,7.27
2018-03-17T08:03:58.400Z,7.27
2018-03-17T08:05:19.387Z,7.23
2018-03-17T08:05:58.372Z,7.30
2018-03-17T08:07:19.366Z,7.34
2018-03-17T08:07:58.350Z,7.34
2018-03-17T08:08:58.341Z,7.45
2018-03-17T08:10:19.322Z,7.53
2018-03-17T08:10:58.310Z,7.52
2018-03-17T08:12:19.299Z,7.64
2018-03-17T08:12:58.281Z,7.53
2018-03-17T08:13:58.271Z,7.60
2018-03-17T08:15:19.267Z,7.46
2018-03-17T08:15:58.249Z,7.34
2018-03-17T08:17:19.234Z,7.34
2018-03-17T08:17:58.216Z,7.31
2018-03-17T08:18:58.202Z,7.24
2018-03-17T08:20:19.201Z,7.25
2018-03-17T08:20:58.188Z,7.28
2018-03-17T08:22:19.172Z,7.23
2018-03-17T08:22:58.155Z,7.20
2018-03-17T08:23:58.140Z,7.30
2018-03-17T08:25:19.130Z,7.30
2018-03-17T08:25:58.114Z,7.28
2018-03-17T08:27:19.109Z,7.37
2018-03-17T08:27:58.089Z,7.42
2018-03-17T08:28:58.077Z,7.49
2018-03-17T08:30:19.076Z,7.46
2018-03-17T08:30:58.055Z,7.53
2018-03-17T08:32:19.041Z,7.60
2018-03-17T08:32:58.033Z,7.69
2018-03-17T08:33:58.013Z,7.68
2018-03-17T08:35:19.006Z,7.69
2018-03-17T08:35:57.984Z,7.82
2018-03-17T08:37:18.974Z,7.77
2018-03-17T08:37:57.964Z,7.83
2018-03-17T08:38:57.948Z,7.85
2018-03-17T08:40:18.943Z,7.85
2018-03-17T08:40:57.922Z,7.82
2018-03-17T08:42:18.917Z,7.80
2018-03-17T08:42:57.898Z,7.75
2018-03-17T08:43:57.886Z,7.85
2018-03-17T08:45:18.876Z,7.89
2018-03-17T08:45:57.862Z,7.85
2018-03-17T08:47:18.850Z,7.83
2018-03-17T08:47:57.838Z,7.90
2018-03-17T08:48:57.824Z,8.05
2018-03-17T08:50:18.816Z,8.08
2018-03-17T08:50:57.799Z,8.20
2018-03-17T08:52:18.791Z,8.26
2018-03-17T08:52:57.775Z,8.40
2018-03-17T08:53:57.763Z,8.47
2018-03-17T08:55:18.758Z,8.53
2018-03-17T08:55:57.741Z,8.66
2018-03-17T08:57:18.729Z,8.79
2018-03-17T08:57:57.786Z,8.87
2018-03-17T08:58:57.703Z,8.89
2018-03-17T09:00:18.684Z,8.77
2018-03-17T09:00:57.672Z,8.74
2018-03-17T09:02:18.743Z,8.84
2018-03-17T09:02:57.644Z,8.76
2018-03-17T09:03:57.640Z,8.80
2018-03-17T09:05:18.628Z,8.92
2018-03-17T09:05:57.623Z,8.76
2018-03-17T09:07:18.611Z,8.89
2018-03-17T09:07:57.589Z,8.84
2018-03-17T09:08:57.579Z,8.89
2018-03-17T09:10:18.571Z,8.91
2018-03-17T09:10:57.549Z,8.94
2018-03-17T09:12:18.557Z,8.98
2018-03-17T09:12:57.529Z,8.99
2018-03-17T09:13:57.515Z,8.96
2018-03-17T09:15:18.510Z,8.98
2018-03-17T09:15:57.490Z,8.98
2018-03-17T09:17:18.484Z,9.01
2018-03-17T09:17:57.464Z,9.14
2018-03-17T09:18:57.459Z,9.08
2018-03-17T09:20:18.448Z,9.17
2018-03-17T09:20:57.428Z,9.23
2018-03-17T09:22:18.422Z,9.20
2018-03-17T09:22:57.409Z,9.13
2018-03-17T09:23:57.398Z,9.11
2018-03-17T09:25:18.386Z,9.08
2018-03-17T09:25:57.380Z,8.95
2018-03-17T09:27:18.389Z,9.02
2018-03-17T09:27:57.345Z,9.11
2018-03-17T09:28:57.337Z,9.21
2018-03-17T09:30:18.327Z,9.23
2018-03-17T09:30:57.315Z,9.29
2018-03-17T09:32:18.305Z,9.29
2018-03-17T09:32:57.289Z,9.42
2018-03-17T09:33:57.277Z,9.50
2018-03-17T09:35:18.271Z,9.51
2018-03-17T09:35:57.254Z,9.60
2018-03-17T09:37:18.245Z,9.64
2018-03-17T09:37:57.228Z,9.68
2018-03-17T09:38:57.227Z,9.64
2018-03-17T09:40:18.208Z,9.61
2018-03-17T09:40:57.191Z,9.84
2018-03-17T09:42:18.252Z,9.78
2018-03-17T09:42:57.169Z,9.81
2018-03-17T09:43:57.161Z,9.87
2018-03-17T09:45:18.159Z,9.90
2018-03-17T09:45:57.136Z,9.96
2018-03-17T09:47:18.130Z,10.01
2018-03-17T09:47:57.114Z,9.97
2018-03-17T09:48:57.108Z,10.04
2018-03-17T09:50:18.096Z,10.02
2018-03-17T09:50:57.079Z,10.11
2018-03-17T09:52:18.088Z,10.18
2018-03-17T09:52:57.054Z,10.33
2018-03-17T09:53:57.046Z,10.18
2018-03-17T09:55:18.043Z,10.20
2018-03-17T09:55:57.021Z,10.40
2018-03-17T09:57:18.014Z,10.48
2018-03-17T09:57:56.996Z,10.42
2018-03-17T09:58:56.987Z,10.41
2018-03-17T10:00:17.981Z,10.53
2018-03-17T10:00:56.963Z,10.55
2018-03-17T10:02:17.952Z,10.59
2018-03-17T10:02:56.939Z,10.73
2018-03-17T10:03:56.935Z,10.63
2018-03-17T10:05:17.921Z,10.70
2018-03-17T10:05:56.905Z,10.84
2018-03-17T10:07:17.900Z,10.74
2018-03-17T10:07:56.883Z,10.85
2018-03-17T10:08:56.873Z,10.81
2018-03-17T10:10:17.870Z,10.89
2018-03-17T10:10:56.849Z,10.78
2018-03-17T10:12:17.837Z,10.67
2018-03-17T10:12:56.836Z,10.74
2018-03-17T10:13:56.815Z,10.61
2018-03-17T10:15:17.812Z,10.56
2018-03-17T10:15:56.795Z,10.45
2018-03-17T10:17:17.788Z,10.45
2018-03-17T10:17:56.774Z,10.40
2018-03-17T10:18:56.767Z,10.48
2018-03-17T10:20:17.754Z,10.48
2018-03-17T10:20:56.736Z,10.56
2018-03-17T10:22:17.732Z,10.51
2018-03-17T10:22:56.715Z,10.59
2018-03-17T10:23:56.702Z,10.59
2018-03-17T10:25:17.699Z,10.59
2018-03-17T10:25:56.679Z,10.44
2018-03-17T10:27:17.687Z,10.47
2018-03-17T10:27:56.666Z,10.42
2018-03-17T10:28:56.646Z,10.33
2018-03-17T10:30:17.644Z,10.33
2018-03-17T10:30:56.641Z,10.25
2018-03-17T10:32:17.621Z,10.15
2018-03-17T10:32:56.606Z,10.18
2018-03-17T10:33:56.597Z,10.09
2018-03-17T10:35:17.586Z,10.15
2018-03-17T10:35:56.576Z,10.09
2018-03-17T10:37:17.565Z,10.01
2018-03-17T10:37:56.551Z,10.11
2018-03-17T10:38:56.537Z,10.15
2018-03-17T10:40:17.535Z,10.12
2018-03-17T10:40:56.513Z,10.20
2018-03-17T10:42:17.522Z,10.20
2018-03-17T10:42:56.502Z,10.25
2018-03-17T10:43:56.487Z,10.12
2018-03-17T10:45:17.484Z,10.11
2018-03-17T10:45:56.459Z,10.18
2018-03-17T10:47:17.457Z,10.18
2018-03-17T10:47:56.438Z,10.05
2018-03-17T10:48:56.426Z,10.09
2018-03-17T10:50:17.435Z,10.12
2018-03-17T10:50:56.413Z,10.23
2018-03-17T10:52:17.402Z,10.18
2018-03-17T10:52:56.385Z,10.20
2018-03-17T10:53:56.377Z,10.20
2018-03-17T10:55:17.370Z,10.23
2018-03-17T10:55:56.351Z,10.20
2018-03-17T10:57:17.349Z,10.22
2018-03-17T10:57:56.329Z,10.17
2018-03-17T10:58:56.314Z,10.23
2018-03-17T11:00:17.309Z,10.26
2018-03-17T11:00:56.295Z,10.36
2018-03-17T11:02:17.291Z,10.36
2018-03-17T11:02:56.268Z,10.42
2018-03-17T11:03:56.261Z,10.55
2018-03-17T11:05:17.255Z,10.67
2018-03-17T11:05:56.254Z,10.66
2018-03-17T11:07:17.232Z,10.74
2018-03-17T11:07:56.216Z,10.85
2018-03-17T11:08:56.210Z,11.03
2018-03-17T11:10:17.205Z,11.07
2018-03-17T11:10:56.189Z,11.21
2018-03-17T11:12:17.173Z,11.42
2018-03-17T11:12:56.165Z,11.47
2018-03-17T11:13:56.151Z,11.54
2018-03-17T11:15:17.145Z,11.57
2018-03-17T11:15:56.128Z,11.64
2018-03-17T11:17:17.123Z,11.52
2018-03-17T11:17:56.107Z,11.61
2018-03-17T11:18:56.099Z,11.64
2018-03-17T11:20:17.094Z,11.62
2018-03-17T11:20:56.072Z,11.62
2018-03-17T11:22:17.072Z,11.78
2018-03-17T11:22:56.119Z,11.80
2018-03-17T11:23:56.044Z,12.10
2018-03-17T11:25:17.040Z,12.16
2018-03-17T11:25:56.025Z,12.27
2018-03-17T11:27:17.016Z,12.31
2018-03-17T11:27:56.001Z,12.34
2018-03-17T11:28:55.988Z,12.19
2018-03-17T11:30:16.981Z,12.16
2018-03-17T11:30:55.971Z,12.12
2018-03-17T11:32:16.969Z,12.13
2018-03-17T11:32:55.949Z,12.12
2018-03-17T11:33:55.940Z,12.04
2018-03-17T11:35:16.937Z,11.99
2018-03-17T11:35:55.923Z,11.69
2018-03-17T11:37:16.910Z,11.58
2018-03-17T11:37:55.905Z,11.54
2018-03-17T11:38:55.892Z,11.60
2018-03-17T11:40:16.880Z,11.55
2018-03-17T11:40:55.866Z,11.62
2018-03-17T11:42:16.858Z,11.60
2018-03-17T11:42:55.842Z,11.67
2018-03-17T11:43:55.830Z,11.60
2018-03-17T11:45:16.826Z,11.37
2018-03-17T11:45:55.815Z,11.18
2018-03-17T11:47:16.816Z,11.14
2018-03-17T11:47:55.822Z,11.10
2018-03-17T11:48:55.782Z,11.11
2018-03-17T11:50:16.785Z,11.04
2018-03-17T11:50:55.760Z,11.04
2018-03-17T11:52:16.757Z,10.86
2018-03-17T11:52:55.736Z,10.88
2018-03-17T11:53:55.728Z,10.92
2018-03-17T11:55:16.723Z,10.89
2018-03-17T11:55:55.716Z,10.78
2018-03-17T11:57:16.705Z,10.76
2018-03-17T11:57:55.689Z,10.64
2018-03-17T11:58:55.675Z,10.56
2018-03-17T12:00:16.676Z,10.20
2018-03-17T12:00:55.659Z,9.99
2018-03-17T12:02:16.650Z,9.89
2018-03-17T12:02:55.644Z,9.89
2018-03-17T12:03:55.625Z,9.91
2018-03-17T12:05:16.620Z,9.97
2018-03-17T12:05:55.601Z,10.04
2018-03-17T12:07:16.607Z,9.94
2018-03-17T12:07:55.585Z,10.07
2018-03-17T12:08:55.567Z,10.01
2018-03-17T12:10:16.565Z,10.11
2018-03-17T12:10:55.562Z,10.12
2018-03-17T12:12:16.546Z,10.08
2018-03-17T12:12:55.526Z,10.17
2018-03-17T12:13:55.545Z,10.32
2018-03-17T12:15:16.512Z,10.14
2018-03-17T12:15:55.498Z,10.18
2018-03-17T12:17:16.494Z,10.11
2018-03-17T12:17:55.472Z,10.09
2018-03-17T12:18:55.463Z,10.11
2018-03-17T12:20:16.455Z,10.36
2018-03-17T12:20:55.446Z,10.52
2018-03-17T12:22:16.429Z,10.68
2018-03-17T12:22:55.422Z,10.67
2018-03-17T12:23:55.408Z,10.97
2018-03-17T12:25:16.406Z,11.21
2018-03-17T12:25:55.388Z,11.35
2018-03-17T12:27:16.379Z,11.70
2018-03-17T12:27:55.363Z,11.99
2018-03-17T12:28:55.351Z,12.17
2018-03-17T12:30:16.345Z,12.17
2018-03-17T12:30:55.333Z,12.21
2018-03-17T12:32:16.331Z,12.12
2018-03-17T12:32:55.306Z,12.04
2018-03-17T12:33:55.301Z,12.31
2018-03-17T12:35:16.296Z,12.60
2018-03-17T12:35:55.282Z,12.71
2018-03-17T12:37:16.272Z,12.46
2018-03-17T12:37:55.260Z,12.57
2018-03-17T12:38:55.250Z,12.41
2018-03-17T12:40:16.244Z,12.39
2018-03-17T12:40:55.232Z,12.29
2018-03-17T12:42:16.224Z,12.42
2018-03-17T12:42:55.207Z,12.45
2018-03-17T12:43:55.197Z,12.37
2018-03-17T12:45:16.189Z,12.19
2018-03-17T12:45:55.179Z,12.02
2018-03-17T12:47:16.175Z,11.95
2018-03-17T12:47:55.159Z,11.88
2018-03-17T12:48:55.145Z,11.65
2018-03-17T12:50:16.139Z,11.76
2018-03-17T12:50:55.132Z,11.49
2018-03-17T12:52:16.128Z,11.25
2018-03-17T12:52:55.110Z,11.10
2018-03-17T12:53:55.100Z,11.07
2018-03-17T12:55:16.098Z,11.02
2018-03-17T12:55:55.082Z,10.92
2018-03-17T12:57:16.076Z,10.86
2018-03-17T12:57:55.061Z,10.88
2018-03-17T12:58:55.045Z,10.92
2018-03-17T13:00:16.045Z,10.99
2018-03-17T13:00:55.033Z,11.03
2018-03-17T13:02:16.021Z,11.06
2018-03-17T13:02:55.007Z,11.17
2018-03-17T13:03:54.999Z,11.28
2018-03-17T13:05:15.991Z,11.25
2018-03-17T13:05:54.971Z,11.33
2018-03-17T13:07:15.976Z,11.21
2018-03-17T13:07:54.958Z,11.39
2018-03-17T13:08:54.944Z,11.40
2018-03-17T13:10:15.951Z,11.44
2018-03-17T13:10:54.928Z,11.39